Aviation Digital Data Service (ADDS)

Output produced by METARs form (0939 UTC 19 July 2018)
found at http://aviationweather.gov/adds/metars/
 
KLFT 190520Z 1906/2006 00000KT P6SM BKN250 
     FM191500 26008KT P6SM SCT025 SCT250 
     FM200200 22005KT P6SM SKC